sensor_id;sensor_type;location;lat;lon;timestamp;pressure;altitude;pressure_sealevel;temperature
38114;BMP180;23926;53.222;6.354;2022-08-03T00:00:54;101355.00;;;21.70
38114;BMP180;23926;53.222;6.354;2022-08-03T00:03:20;101340.00;;;21.70
38114;BMP180;23926;53.222;6.354;2022-08-03T00:05:45;101336.00;;;21.70
38114;BMP180;23926;53.222;6.354;2022-08-03T00:08:11;101347.00;;;21.80
38114;BMP180;23926;53.222;6.354;2022-08-03T00:10:36;101344.00;;;21.80
38114;BMP180;23926;53.222;6.354;2022-08-03T00:13:03;101341.00;;;21.80
38114;BMP180;23926;53.222;6.354;2022-08-03T00:15:28;101326.00;;;21.80
38114;BMP180;23926;53.222;6.354;2022-08-03T00:17:54;101331.00;;;21.70
38114;BMP180;23926;53.222;6.354;2022-08-03T00:20:22;101335.00;;;21.70
38114;BMP180;23926;53.222;6.354;2022-08-03T00:22:48;101337.00;;;21.70
38114;BMP180;23926;53.222;6.354;2022-08-03T00:25:14;101336.00;;;21.70
38114;BMP180;23926;53.222;6.354;2022-08-03T00:27:39;101341.00;;;21.80
38114;BMP180;23926;53.222;6.354;2022-08-03T00:30:05;101326.00;;;21.80
38114;BMP180;23926;53.222;6.354;2022-08-03T00:32:31;101331.00;;;21.80
38114;BMP180;23926;53.222;6.354;2022-08-03T00:34:56;101321.00;;;21.80
38114;BMP180;23926;53.222;6.354;2022-08-03T00:37:22;101326.00;;;21.80
38114;BMP180;23926;53.222;6.354;2022-08-03T00:39:47;101330.00;;;21.90
38114;BMP180;23926;53.222;6.354;2022-08-03T00:42:13;101329.00;;;21.90
38114;BMP180;23926;53.222;6.354;2022-08-03T00:44:40;101328.00;;;21.90
38114;BMP180;23926;53.222;6.354;2022-08-03T00:47:06;101331.00;;;21.90
38114;BMP180;23926;53.222;6.354;2022-08-03T00:49:32;101327.00;;;21.90
38114;BMP180;23926;53.222;6.354;2022-08-03T00:51:58;101336.00;;;22.00
38114;BMP180;23926;53.222;6.354;2022-08-03T00:54:24;101328.00;;;22.00
38114;BMP180;23926;53.222;6.354;2022-08-03T00:56:50;101324.00;;;22.00
38114;BMP180;23926;53.222;6.354;2022-08-03T00:59:17;101324.00;;;22.00
38114;BMP180;23926;53.222;6.354;2022-08-03T01:01:42;101312.00;;;22.00
38114;BMP180;23926;53.222;6.354;2022-08-03T01:04:08;101323.00;;;21.90
38114;BMP180;23926;53.222;6.354;2022-08-03T01:06:54;101313.00;;;21.90
38114;BMP180;23926;53.222;6.354;2022-08-03T01:09:37;101314.00;;;21.80
38114;BMP180;23926;53.222;6.354;2022-08-03T01:12:26;101315.00;;;21.70
38114;BMP180;23926;53.222;6.354;2022-08-03T01:17:56;101311.00;;;21.50
38114;BMP180;23926;53.222;6.354;2022-08-03T01:20:26;101308.00;;;21.50
38114;BMP180;23926;53.222;6.354;2022-08-03T01:28:24;101309.00;;;21.50
38114;BMP180;23926;53.222;6.354;2022-08-03T01:30:55;101305.00;;;21.60
38114;BMP180;23926;53.222;6.354;2022-08-03T01:33:49;101298.00;;;21.50
38114;BMP180;23926;53.222;6.354;2022-08-03T01:36:20;101311.00;;;21.60
38114;BMP180;23926;53.222;6.354;2022-08-03T01:38:54;101297.00;;;21.60
38114;BMP180;23926;53.222;6.354;2022-08-03T01:41:24;101295.00;;;21.50
38114;BMP180;23926;53.222;6.354;2022-08-03T01:43:54;101304.00;;;21.50
38114;BMP180;23926;53.222;6.354;2022-08-03T01:46:22;101296.00;;;21.40
38114;BMP180;23926;53.222;6.354;2022-08-03T01:48:49;101286.00;;;21.40
38114;BMP180;23926;53.222;6.354;2022-08-03T01:51:17;101289.00;;;21.40
38114;BMP180;23926;53.222;6.354;2022-08-03T01:53:44;101297.00;;;21.50
38114;BMP180;23926;53.222;6.354;2022-08-03T01:56:12;101280.00;;;21.50
38114;BMP180;23926;53.222;6.354;2022-08-03T01:58:39;101288.00;;;21.40
38114;BMP180;23926;53.222;6.354;2022-08-03T02:01:06;101286.00;;;21.40
38114;BMP180;23926;53.222;6.354;2022-08-03T02:03:36;101279.00;;;21.40
38114;BMP180;23926;53.222;6.354;2022-08-03T02:06:02;101279.00;;;21.40
38114;BMP180;23926;53.222;6.354;2022-08-03T02:08:30;101277.00;;;21.40
38114;BMP180;23926;53.222;6.354;2022-08-03T02:10:57;101274.00;;;21.40
38114;BMP180;23926;53.222;6.354;2022-08-03T02:13:25;101256.00;;;21.40
38114;BMP180;23926;53.222;6.354;2022-08-03T02:15:51;101273.00;;;21.40
38114;BMP180;23926;53.222;6.354;2022-08-03T02:18:18;101264.00;;;21.40
38114;BMP180;23926;53.222;6.354;2022-08-03T02:20:46;101268.00;;;21.40
38114;BMP180;23926;53.222;6.354;2022-08-03T02:23:14;101275.00;;;21.40
38114;BMP180;23926;53.222;6.354;2022-08-03T02:25:57;101239.00;;;21.40
38114;BMP180;23926;53.222;6.354;2022-08-03T02:28:29;101265.00;;;21.40
38114;BMP180;23926;53.222;6.354;2022-08-03T02:30:57;101266.00;;;21.40
38114;BMP180;23926;53.222;6.354;2022-08-03T02:33:30;101281.00;;;21.40
38114;BMP180;23926;53.222;6.354;2022-08-03T02:35:57;101269.00;;;21.40
38114;BMP180;23926;53.222;6.354;2022-08-03T02:38:28;101272.00;;;21.40
38114;BMP180;23926;53.222;6.354;2022-08-03T02:40:57;101260.00;;;21.40
38114;BMP180;23926;53.222;6.354;2022-08-03T02:43:24;101252.00;;;21.40
38114;BMP180;23926;53.222;6.354;2022-08-03T02:45:50;101255.00;;;21.40
38114;BMP180;23926;53.222;6.354;2022-08-03T02:48:23;101243.00;;;21.40
38114;BMP180;23926;53.222;6.354;2022-08-03T02:50:52;101254.00;;;21.40
38114;BMP180;23926;53.222;6.354;2022-08-03T02:53:18;101258.00;;;21.40
38114;BMP180;23926;53.222;6.354;2022-08-03T02:55:46;101256.00;;;21.40
38114;BMP180;23926;53.222;6.354;2022-08-03T02:58:13;101253.00;;;21.40
38114;BMP180;23926;53.222;6.354;2022-08-03T03:00:40;101242.00;;;21.40
38114;BMP180;23926;53.222;6.354;2022-08-03T03:03:09;101248.00;;;21.40
38114;BMP180;23926;53.222;6.354;2022-08-03T03:05:35;101246.00;;;21.40
38114;BMP180;23926;53.222;6.354;2022-08-03T03:08:01;101245.00;;;21.40
38114;BMP180;23926;53.222;6.354;2022-08-03T03:10:27;101243.00;;;21.40
38114;BMP180;23926;53.222;6.354;2022-08-03T03:12:57;101255.00;;;21.40
38114;BMP180;23926;53.222;6.354;2022-08-03T03:15:25;101254.00;;;21.40
38114;BMP180;23926;53.222;6.354;2022-08-03T03:17:51;101249.00;;;21.40
38114;BMP180;23926;53.222;6.354;2022-08-03T03:20:18;101244.00;;;21.40
38114;BMP180;23926;53.222;6.354;2022-08-03T03:22:47;101240.00;;;21.30
38114;BMP180;23926;53.222;6.354;2022-08-03T03:25:14;101235.00;;;21.30
38114;BMP180;23926;53.222;6.354;2022-08-03T03:27:40;101251.00;;;21.30
38114;BMP180;23926;53.222;6.354;2022-08-03T03:30:06;101251.00;;;21.30
38114;BMP180;23926;53.222;6.354;2022-08-03T03:32:32;101250.00;;;21.30
38114;BMP180;23926;53.222;6.354;2022-08-03T03:34:58;101242.00;;;21.30
38114;BMP180;23926;53.222;6.354;2022-08-03T03:37:25;101244.00;;;21.30
38114;BMP180;23926;53.222;6.354;2022-08-03T03:39:52;101260.00;;;21.30
38114;BMP180;23926;53.222;6.354;2022-08-03T03:42:18;101249.00;;;21.30
38114;BMP180;23926;53.222;6.354;2022-08-03T03:44:43;101250.00;;;21.20
38114;BMP180;23926;53.222;6.354;2022-08-03T03:47:09;101256.00;;;21.20
38114;BMP180;23926;53.222;6.354;2022-08-03T03:49:35;101244.00;;;21.20
38114;BMP180;23926;53.222;6.354;2022-08-03T03:52:00;101244.00;;;21.20
38114;BMP180;23926;53.222;6.354;2022-08-03T03:54:26;101241.00;;;21.20
38114;BMP180;23926;53.222;6.354;2022-08-03T03:56:51;101239.00;;;21.10
38114;BMP180;23926;53.222;6.354;2022-08-03T03:59:17;101249.00;;;21.20
38114;BMP180;23926;53.222;6.354;2022-08-03T04:01:42;101237.00;;;21.20
38114;BMP180;23926;53.222;6.354;2022-08-03T04:04:07;101246.00;;;21.20
38114;BMP180;23926;53.222;6.354;2022-08-03T04:06:51;101247.00;;;21.10
38114;BMP180;23926;53.222;6.354;2022-08-03T04:09:37;101249.00;;;21.10
38114;BMP180;23926;53.222;6.354;2022-08-03T04:12:23;101246.00;;;21.10
38114;BMP180;23926;53.222;6.354;2022-08-03T04:14:52;101242.00;;;21.10
38114;BMP180;23926;53.222;6.354;2022-08-03T04:17:22;101253.00;;;21.20
38114;BMP180;23926;53.222;6.354;2022-08-03T04:19:52;101271.00;;;21.10
38114;BMP180;23926;53.222;6.354;2022-08-03T04:22:25;101274.00;;;21.10
38114;BMP180;23926;53.222;6.354;2022-08-03T04:24:59;101270.00;;;21.10
38114;BMP180;23926;53.222;6.354;2022-08-03T04:27:28;101264.00;;;21.20
38114;BMP180;23926;53.222;6.354;2022-08-03T04:29:56;101255.00;;;21.20
38114;BMP180;23926;53.222;6.354;2022-08-03T04:32:22;101259.00;;;21.20
38114;BMP180;23926;53.222;6.354;2022-08-03T04:34:49;101265.00;;;21.30
38114;BMP180;23926;53.222;6.354;2022-08-03T04:37:25;101266.00;;;21.30
38114;BMP180;23926;53.222;6.354;2022-08-03T04:39:52;101257.00;;;21.30
38114;BMP180;23926;53.222;6.354;2022-08-03T04:42:19;101267.00;;;21.30
38114;BMP180;23926;53.222;6.354;2022-08-03T04:44:47;101271.00;;;21.30
38114;BMP180;23926;53.222;6.354;2022-08-03T04:47:12;101267.00;;;21.20
38114;BMP180;23926;53.222;6.354;2022-08-03T04:49:38;101267.00;;;21.30
38114;BMP180;23926;53.222;6.354;2022-08-03T04:52:06;101275.00;;;21.40
38114;BMP180;23926;53.222;6.354;2022-08-03T04:54:41;101272.00;;;21.40
38114;BMP180;23926;53.222;6.354;2022-08-03T04:57:07;101280.00;;;21.30
38114;BMP180;23926;53.222;6.354;2022-08-03T04:59:32;101284.00;;;21.40
38114;BMP180;23926;53.222;6.354;2022-08-03T05:01:58;101279.00;;;21.50
38114;BMP180;23926;53.222;6.354;2022-08-03T05:04:23;101283.00;;;21.50
38114;BMP180;23926;53.222;6.354;2022-08-03T05:06:48;101284.00;;;21.50
38114;BMP180;23926;53.222;6.354;2022-08-03T05:09:14;101281.00;;;21.60
38114;BMP180;23926;53.222;6.354;2022-08-03T05:11:39;101273.00;;;21.60
38114;BMP180;23926;53.222;6.354;2022-08-03T05:14:04;101284.00;;;21.70
38114;BMP180;23926;53.222;6.354;2022-08-03T05:16:30;101281.00;;;21.70
38114;BMP180;23926;53.222;6.354;2022-08-03T05:18:55;101293.00;;;21.70
38114;BMP180;23926;53.222;6.354;2022-08-03T05:21:21;101289.00;;;21.70
38114;BMP180;23926;53.222;6.354;2022-08-03T05:23:46;101288.00;;;21.70
38114;BMP180;23926;53.222;6.354;2022-08-03T05:26:11;101289.00;;;21.80
38114;BMP180;23926;53.222;6.354;2022-08-03T05:28:37;101280.00;;;21.80
38114;BMP180;23926;53.222;6.354;2022-08-03T05:31:03;101287.00;;;21.90
38114;BMP180;23926;53.222;6.354;2022-08-03T05:33:28;101277.00;;;21.90
38114;BMP180;23926;53.222;6.354;2022-08-03T05:35:53;101278.00;;;21.90
38114;BMP180;23926;53.222;6.354;2022-08-03T05:38:19;101277.00;;;22.00
38114;BMP180;23926;53.222;6.354;2022-08-03T05:40:44;101282.00;;;22.00
38114;BMP180;23926;53.222;6.354;2022-08-03T05:43:10;101279.00;;;22.10
38114;BMP180;23926;53.222;6.354;2022-08-03T05:45:36;101294.00;;;22.20
38114;BMP180;23926;53.222;6.354;2022-08-03T05:48:03;101288.00;;;22.20
38114;BMP180;23926;53.222;6.354;2022-08-03T05:50:29;101286.00;;;22.20
38114;BMP180;23926;53.222;6.354;2022-08-03T05:52:55;101279.00;;;22.20
38114;BMP180;23926;53.222;6.354;2022-08-03T05:55:23;101290.00;;;22.20
38114;BMP180;23926;53.222;6.354;2022-08-03T05:57:49;101295.00;;;22.30
38114;BMP180;23926;53.222;6.354;2022-08-03T06:00:15;101297.00;;;22.30
38114;BMP180;23926;53.222;6.354;2022-08-03T06:02:41;101286.00;;;22.30
38114;BMP180;23926;53.222;6.354;2022-08-03T06:05:07;101296.00;;;22.40
38114;BMP180;23926;53.222;6.354;2022-08-03T06:07:33;101296.00;;;22.40
38114;BMP180;23926;53.222;6.354;2022-08-03T06:09:58;101294.00;;;22.40
38114;BMP180;23926;53.222;6.354;2022-08-03T06:12:26;101293.00;;;22.50
38114;BMP180;23926;53.222;6.354;2022-08-03T06:14:51;101291.00;;;22.60
38114;BMP180;23926;53.222;6.354;2022-08-03T06:17:17;101282.00;;;22.60
38114;BMP180;23926;53.222;6.354;2022-08-03T06:19:42;101281.00;;;22.60
38114;BMP180;23926;53.222;6.354;2022-08-03T06:22:08;101286.00;;;22.70
38114;BMP180;23926;53.222;6.354;2022-08-03T06:24:33;101290.00;;;22.80
38114;BMP180;23926;53.222;6.354;2022-08-03T06:26:58;101298.00;;;22.80
38114;BMP180;23926;53.222;6.354;2022-08-03T06:29:24;101288.00;;;22.90
38114;BMP180;23926;53.222;6.354;2022-08-03T06:31:49;101285.00;;;23.00
38114;BMP180;23926;53.222;6.354;2022-08-03T06:34:15;101300.00;;;23.00
38114;BMP180;23926;53.222;6.354;2022-08-03T06:36:40;101291.00;;;23.10
38114;BMP180;23926;53.222;6.354;2022-08-03T06:39:06;101297.00;;;23.10
38114;BMP180;23926;53.222;6.354;2022-08-03T06:41:31;101295.00;;;23.20
38114;BMP180;23926;53.222;6.354;2022-08-03T06:43:57;101295.00;;;23.20
38114;BMP180;23926;53.222;6.354;2022-08-03T06:46:22;101296.00;;;23.20
38114;BMP180;23926;53.222;6.354;2022-08-03T06:48:48;101294.00;;;23.50
38114;BMP180;23926;53.222;6.354;2022-08-03T06:51:13;101299.00;;;23.60
38114;BMP180;23926;53.222;6.354;2022-08-03T06:53:39;101301.00;;;23.80
38114;BMP180;23926;53.222;6.354;2022-08-03T06:56:05;101306.00;;;23.80
38114;BMP180;23926;53.222;6.354;2022-08-03T06:58:30;101297.00;;;23.70
38114;BMP180;23926;53.222;6.354;2022-08-03T07:00:56;101299.00;;;23.80
38114;BMP180;23926;53.222;6.354;2022-08-03T07:03:21;101312.00;;;23.90
38114;BMP180;23926;53.222;6.354;2022-08-03T07:05:46;101303.00;;;24.10
38114;BMP180;23926;53.222;6.354;2022-08-03T07:08:13;101296.00;;;24.20
38114;BMP180;23926;53.222;6.354;2022-08-03T07:10:39;101302.00;;;24.40
38114;BMP180;23926;53.222;6.354;2022-08-03T07:13:04;101299.00;;;24.60
38114;BMP180;23926;53.222;6.354;2022-08-03T07:15:30;101303.00;;;24.70
38114;BMP180;23926;53.222;6.354;2022-08-03T07:17:56;101294.00;;;24.90
38114;BMP180;23926;53.222;6.354;2022-08-03T07:20:21;101310.00;;;25.00
38114;BMP180;23926;53.222;6.354;2022-08-03T07:22:47;101306.00;;;25.10
38114;BMP180;23926;53.222;6.354;2022-08-03T07:25:13;101315.00;;;25.20
38114;BMP180;23926;53.222;6.354;2022-08-03T07:27:42;101316.00;;;25.30
38114;BMP180;23926;53.222;6.354;2022-08-03T07:30:08;101315.00;;;25.30
38114;BMP180;23926;53.222;6.354;2022-08-03T07:32:33;101314.00;;;25.40
38114;BMP180;23926;53.222;6.354;2022-08-03T07:34:59;101326.00;;;25.40
38114;BMP180;23926;53.222;6.354;2022-08-03T07:37:25;101323.00;;;25.70
38114;BMP180;23926;53.222;6.354;2022-08-03T07:39:50;101323.00;;;25.80
38114;BMP180;23926;53.222;6.354;2022-08-03T07:42:15;101315.00;;;25.90
38114;BMP180;23926;53.222;6.354;2022-08-03T07:44:41;101322.00;;;26.00
38114;BMP180;23926;53.222;6.354;2022-08-03T07:47:06;101327.00;;;26.10
38114;BMP180;23926;53.222;6.354;2022-08-03T07:49:32;101334.00;;;26.00
38114;BMP180;23926;53.222;6.354;2022-08-03T07:51:57;101323.00;;;26.00
38114;BMP180;23926;53.222;6.354;2022-08-03T07:54:41;101332.00;;;26.00
38114;BMP180;23926;53.222;6.354;2022-08-03T07:57:07;101342.00;;;26.20
38114;BMP180;23926;53.222;6.354;2022-08-03T07:59:32;101332.00;;;26.40
38114;BMP180;23926;53.222;6.354;2022-08-03T08:01:59;101341.00;;;26.30
38114;BMP180;23926;53.222;6.354;2022-08-03T08:04:25;101344.00;;;26.40
38114;BMP180;23926;53.222;6.354;2022-08-03T08:06:50;101334.00;;;26.30
38114;BMP180;23926;53.222;6.354;2022-08-03T08:09:15;101341.00;;;26.30
38114;BMP180;23926;53.222;6.354;2022-08-03T08:11:41;101332.00;;;26.20
38114;BMP180;23926;53.222;6.354;2022-08-03T08:14:06;101339.00;;;26.00
38114;BMP180;23926;53.222;6.354;2022-08-03T08:16:32;101349.00;;;26.00
38114;BMP180;23926;53.222;6.354;2022-08-03T08:18:57;101345.00;;;26.00
38114;BMP180;23926;53.222;6.354;2022-08-03T08:21:23;101356.00;;;26.00
38114;BMP180;23926;53.222;6.354;2022-08-03T08:23:48;101350.00;;;26.10
38114;BMP180;23926;53.222;6.354;2022-08-03T08:26:13;101352.00;;;26.30
38114;BMP180;23926;53.222;6.354;2022-08-03T08:28:39;101355.00;;;26.50
38114;BMP180;23926;53.222;6.354;2022-08-03T08:31:04;101361.00;;;26.70
38114;BMP180;23926;53.222;6.354;2022-08-03T08:33:30;101358.00;;;26.90
38114;BMP180;23926;53.222;6.354;2022-08-03T08:35:56;101352.00;;;27.10
38114;BMP180;23926;53.222;6.354;2022-08-03T08:38:22;101359.00;;;26.90
38114;BMP180;23926;53.222;6.354;2022-08-03T08:40:48;101344.00;;;26.90
38114;BMP180;23926;53.222;6.354;2022-08-03T08:43:14;101358.00;;;27.10
38114;BMP180;23926;53.222;6.354;2022-08-03T08:45:40;101348.00;;;27.00
38114;BMP180;23926;53.222;6.354;2022-08-03T08:48:06;101358.00;;;26.80
38114;BMP180;23926;53.222;6.354;2022-08-03T08:50:33;101357.00;;;26.80
38114;BMP180;23926;53.222;6.354;2022-08-03T08:53:02;101363.00;;;26.80
38114;BMP180;23926;53.222;6.354;2022-08-03T08:55:28;101365.00;;;26.80
38114;BMP180;23926;53.222;6.354;2022-08-03T08:58:01;101356.00;;;26.80
38114;BMP180;23926;53.222;6.354;2022-08-03T09:00:29;101367.00;;;26.90
38114;BMP180;23926;53.222;6.354;2022-08-03T09:02:55;101370.00;;;27.20
38114;BMP180;23926;53.222;6.354;2022-08-03T09:05:21;101367.00;;;27.50
38114;BMP180;23926;53.222;6.354;2022-08-03T09:07:47;101359.00;;;27.60
38114;BMP180;23926;53.222;6.354;2022-08-03T09:10:15;101367.00;;;27.80
38114;BMP180;23926;53.222;6.354;2022-08-03T09:12:49;101371.00;;;28.00
38114;BMP180;23926;53.222;6.354;2022-08-03T09:15:26;101367.00;;;28.20
38114;BMP180;23926;53.222;6.354;2022-08-03T09:17:57;101376.00;;;28.30
38114;BMP180;23926;53.222;6.354;2022-08-03T09:20:25;101377.00;;;27.90
38114;BMP180;23926;53.222;6.354;2022-08-03T09:22:51;101378.00;;;27.70
38114;BMP180;23926;53.222;6.354;2022-08-03T09:25:18;101375.00;;;27.80
38114;BMP180;23926;53.222;6.354;2022-08-03T09:27:45;101367.00;;;27.90
38114;BMP180;23926;53.222;6.354;2022-08-03T09:30:15;101372.00;;;28.10
38114;BMP180;23926;53.222;6.354;2022-08-03T09:32:42;101364.00;;;28.30
38114;BMP180;23926;53.222;6.354;2022-08-03T09:35:09;101364.00;;;28.30
38114;BMP180;23926;53.222;6.354;2022-08-03T09:37:35;101371.00;;;28.30
38114;BMP180;23926;53.222;6.354;2022-08-03T09:40:01;101362.00;;;28.60
38114;BMP180;23926;53.222;6.354;2022-08-03T09:42:26;101357.00;;;28.70
38114;BMP180;23926;53.222;6.354;2022-08-03T09:44:52;101366.00;;;28.70
38114;BMP180;23926;53.222;6.354;2022-08-03T09:47:32;101365.00;;;28.70
38114;BMP180;23926;53.222;6.354;2022-08-03T09:50:06;101368.00;;;28.60
38114;BMP180;23926;53.222;6.354;2022-08-03T09:52:41;101373.00;;;28.50
38114;BMP180;23926;53.222;6.354;2022-08-03T09:55:09;101359.00;;;28.50
38114;BMP180;23926;53.222;6.354;2022-08-03T09:57:35;101361.00;;;28.60
38114;BMP180;23926;53.222;6.354;2022-08-03T10:00:09;101374.00;;;28.40
38114;BMP180;23926;53.222;6.354;2022-08-03T10:02:36;101366.00;;;28.60
38114;BMP180;23926;53.222;6.354;2022-08-03T10:05:03;101362.00;;;28.60
38114;BMP180;23926;53.222;6.354;2022-08-03T10:07:28;101369.00;;;28.60
38114;BMP180;23926;53.222;6.354;2022-08-03T10:10:01;101372.00;;;28.50
38114;BMP180;23926;53.222;6.354;2022-08-03T10:12:27;101373.00;;;28.30
38114;BMP180;23926;53.222;6.354;2022-08-03T10:14:53;101376.00;;;28.30
38114;BMP180;23926;53.222;6.354;2022-08-03T10:17:19;101374.00;;;28.20
38114;BMP180;23926;53.222;6.354;2022-08-03T10:19:46;101381.00;;;28.10
38114;BMP180;23926;53.222;6.354;2022-08-03T10:22:21;101376.00;;;28.00
38114;BMP180;23926;53.222;6.354;2022-08-03T10:24:52;101375.00;;;28.10
38114;BMP180;23926;53.222;6.354;2022-08-03T10:27:19;101369.00;;;28.30
38114;BMP180;23926;53.222;6.354;2022-08-03T10:29:48;101379.00;;;28.60
38114;BMP180;23926;53.222;6.354;2022-08-03T10:32:27;101367.00;;;29.00
38114;BMP180;23926;53.222;6.354;2022-08-03T10:35:13;101371.00;;;29.10
38114;BMP180;23926;53.222;6.354;2022-08-03T10:40:21;101372.00;;;29.20
38114;BMP180;23926;53.222;6.354;2022-08-03T10:42:49;101375.00;;;29.20
38114;BMP180;23926;53.222;6.354;2022-08-03T10:45:19;101369.00;;;29.20
38114;BMP180;23926;53.222;6.354;2022-08-03T10:47:47;101373.00;;;29.20
38114;BMP180;23926;53.222;6.354;2022-08-03T10:50:13;101375.00;;;29.20
38114;BMP180;23926;53.222;6.354;2022-08-03T10:52:59;101364.00;;;29.20
38114;BMP180;23926;53.222;6.354;2022-08-03T10:58:51;101371.00;;;28.90
38114;BMP180;23926;53.222;6.354;2022-08-03T11:01:18;101367.00;;;28.80
38114;BMP180;23926;53.222;6.354;2022-08-03T11:06:20;101367.00;;;28.70
38114;BMP180;23926;53.222;6.354;2022-08-03T11:08:47;101360.00;;;28.70
38114;BMP180;23926;53.222;6.354;2022-08-03T11:16:21;101363.00;;;28.80
38114;BMP180;23926;53.222;6.354;2022-08-03T11:18:58;101364.00;;;28.60
38114;BMP180;23926;53.222;6.354;2022-08-03T11:30:03;101373.00;;;28.60
38114;BMP180;23926;53.222;6.354;2022-08-03T11:37:34;101365.00;;;28.80
38114;BMP180;23926;53.222;6.354;2022-08-03T11:40:00;101365.00;;;28.90
38114;BMP180;23926;53.222;6.354;2022-08-03T11:44:57;101364.00;;;29.00
38114;BMP180;23926;53.222;6.354;2022-08-03T11:47:26;101356.00;;;29.00
38114;BMP180;23926;53.222;6.354;2022-08-03T11:49:58;101362.00;;;29.30
38114;BMP180;23926;53.222;6.354;2022-08-03T11:52:26;101361.00;;;29.10
38114;BMP180;23926;53.222;6.354;2022-08-03T11:54:58;101366.00;;;29.10
38114;BMP180;23926;53.222;6.354;2022-08-03T11:57:30;101364.00;;;29.20
38114;BMP180;23926;53.222;6.354;2022-08-03T11:59:56;101377.00;;;29.30
38114;BMP180;23926;53.222;6.354;2022-08-03T12:02:22;101376.00;;;29.40
38114;BMP180;23926;53.222;6.354;2022-08-03T12:04:57;101376.00;;;29.30
38114;BMP180;23926;53.222;6.354;2022-08-03T12:07:25;101377.00;;;29.40
38114;BMP180;23926;53.222;6.354;2022-08-03T12:10:24;101390.00;;;29.50
38114;BMP180;23926;53.222;6.354;2022-08-03T12:12:57;101389.00;;;29.40
38114;BMP180;23926;53.222;6.354;2022-08-03T12:15:30;101385.00;;;29.40
38114;BMP180;23926;53.222;6.354;2022-08-03T12:17:58;101388.00;;;29.50
38114;BMP180;23926;53.222;6.354;2022-08-03T12:20:27;101376.00;;;29.50
38114;BMP180;23926;53.222;6.354;2022-08-03T12:22:52;101378.00;;;29.70
38114;BMP180;23926;53.222;6.354;2022-08-03T12:25:23;101377.00;;;29.70
38114;BMP180;23926;53.222;6.354;2022-08-03T12:27:51;101387.00;;;30.00
38114;BMP180;23926;53.222;6.354;2022-08-03T12:30:16;101382.00;;;29.80
38114;BMP180;23926;53.222;6.354;2022-08-03T12:32:42;101375.00;;;29.80
38114;BMP180;23926;53.222;6.354;2022-08-03T12:35:08;101371.00;;;29.80
38114;BMP180;23926;53.222;6.354;2022-08-03T12:37:35;101378.00;;;29.90
38114;BMP180;23926;53.222;6.354;2022-08-03T12:40:01;101364.00;;;30.00
38114;BMP180;23926;53.222;6.354;2022-08-03T12:42:33;101381.00;;;30.10
38114;BMP180;23926;53.222;6.354;2022-08-03T12:44:59;101382.00;;;30.20
38114;BMP180;23926;53.222;6.354;2022-08-03T12:47:24;101380.00;;;30.20
38114;BMP180;23926;53.222;6.354;2022-08-03T12:49:51;101390.00;;;30.30
38114;BMP180;23926;53.222;6.354;2022-08-03T12:52:19;101388.00;;;30.30
38114;BMP180;23926;53.222;6.354;2022-08-03T12:54:59;101384.00;;;30.30
38114;BMP180;23926;53.222;6.354;2022-08-03T12:57:25;101389.00;;;30.30
38114;BMP180;23926;53.222;6.354;2022-08-03T12:59:50;101380.00;;;30.30
38114;BMP180;23926;53.222;6.354;2022-08-03T13:02:20;101392.00;;;30.50
38114;BMP180;23926;53.222;6.354;2022-08-03T13:04:48;101383.00;;;30.60
38114;BMP180;23926;53.222;6.354;2022-08-03T13:07:15;101379.00;;;30.50
38114;BMP180;23926;53.222;6.354;2022-08-03T13:09:47;101390.00;;;30.30
38114;BMP180;23926;53.222;6.354;2022-08-03T13:12:15;101382.00;;;30.30
38114;BMP180;23926;53.222;6.354;2022-08-03T13:14:41;101387.00;;;30.10
38114;BMP180;23926;53.222;6.354;2022-08-03T13:17:07;101393.00;;;30.10
38114;BMP180;23926;53.222;6.354;2022-08-03T13:19:33;101395.00;;;29.90
38114;BMP180;23926;53.222;6.354;2022-08-03T13:21:59;101386.00;;;30.00
38114;BMP180;23926;53.222;6.354;2022-08-03T13:24:25;101386.00;;;30.10
38114;BMP180;23926;53.222;6.354;2022-08-03T13:26:53;101397.00;;;30.30
38114;BMP180;23926;53.222;6.354;2022-08-03T13:29:18;101398.00;;;30.30
38114;BMP180;23926;53.222;6.354;2022-08-03T13:31:43;101391.00;;;30.30
38114;BMP180;23926;53.222;6.354;2022-08-03T13:34:09;101397.00;;;30.30
38114;BMP180;23926;53.222;6.354;2022-08-03T13:36:34;101380.00;;;30.40
38114;BMP180;23926;53.222;6.354;2022-08-03T13:39:00;101382.00;;;30.50
38114;BMP180;23926;53.222;6.354;2022-08-03T13:41:25;101389.00;;;30.40
38114;BMP180;23926;53.222;6.354;2022-08-03T13:43:50;101380.00;;;30.50
38114;BMP180;23926;53.222;6.354;2022-08-03T13:46:16;101388.00;;;30.50
38114;BMP180;23926;53.222;6.354;2022-08-03T13:48:41;101386.00;;;30.60
38114;BMP180;23926;53.222;6.354;2022-08-03T13:51:07;101386.00;;;30.70
38114;BMP180;23926;53.222;6.354;2022-08-03T13:53:32;101383.00;;;30.70
38114;BMP180;23926;53.222;6.354;2022-08-03T13:55:58;101391.00;;;30.90
38114;BMP180;23926;53.222;6.354;2022-08-03T13:58:23;101382.00;;;30.80
38114;BMP180;23926;53.222;6.354;2022-08-03T14:00:48;101391.00;;;30.60
38114;BMP180;23926;53.222;6.354;2022-08-03T14:03:14;101381.00;;;30.60
38114;BMP180;23926;53.222;6.354;2022-08-03T14:05:40;101382.00;;;30.70
38114;BMP180;23926;53.222;6.354;2022-08-03T14:08:06;101389.00;;;31.00
38114;BMP180;23926;53.222;6.354;2022-08-03T14:10:33;101372.00;;;31.00
38114;BMP180;23926;53.222;6.354;2022-08-03T14:12:59;101372.00;;;31.10
38114;BMP180;23926;53.222;6.354;2022-08-03T14:15:25;101376.00;;;31.10
38114;BMP180;23926;53.222;6.354;2022-08-03T14:17:50;101379.00;;;31.10
38114;BMP180;23926;53.222;6.354;2022-08-03T14:20:16;101381.00;;;31.30
38114;BMP180;23926;53.222;6.354;2022-08-03T14:22:41;101378.00;;;31.20
38114;BMP180;23926;53.222;6.354;2022-08-03T14:25:07;101381.00;;;31.20
38114;BMP180;23926;53.222;6.354;2022-08-03T14:27:32;101378.00;;;31.20
38114;BMP180;23926;53.222;6.354;2022-08-03T14:29:58;101379.00;;;31.30
38114;BMP180;23926;53.222;6.354;2022-08-03T14:32:25;101386.00;;;31.40
38114;BMP180;23926;53.222;6.354;2022-08-03T14:34:51;101377.00;;;31.40
38114;BMP180;23926;53.222;6.354;2022-08-03T14:37:20;101377.00;;;31.50